TUI6M LGKO-EDDF
Flight info
| Callsign | TUI6M |
|---|---|
| Flight time | 2h 52m |
| Altitude | 24000 |
| Route | LARKI1F LARKI L609 URNIL/N0444F340 UL609 MES/N0436F320 UL608 FSK/N0440F340 UL608 DISOR DCT LONTA UL608 DOLEV/N0444F360 DCT AGLIB DCT PODET DCT RADLY DCT SIMBA DCT AKINI T161 DEBHI DEBHI1B |
| Aircraft | B38M/M-SDE1FGHILORVWXY/HB1 |
Departure
| Time | 2026-05-07 11:22 |
|---|---|
| Airport | Kos International Airport "Ippokratis" (LGKO) |
Arrival
| Time | 2026-05-07 14:14 |
|---|---|
| Airport | Frankfurt Main Airport (EDDF) |
| Time | Latitude | Longitude | Altitude | Speed | Heading |
|---|---|---|---|---|---|
| 2026-05-07 10:48 | 36.80010 | 27.09035 | 412 ft | 0 kts | 58° |
| 2026-05-07 11:14 | 36.80008 | 27.09031 | 421 ft | 3 kts | 57° |
| 2026-05-07 11:14 | 36.79992 | 27.09004 | 410 ft | 4 kts | 49° |
| 2026-05-07 11:14 | 36.79973 | 27.08982 | 411 ft | 4 kts | 32° |
| 2026-05-07 11:15 | 36.79951 | 27.08973 | 410 ft | 4 kts | 345° |
| 2026-05-07 11:15 | 36.79944 | 27.08976 | 416 ft | 1 kts | 328° |
| 2026-05-07 11:18 | 36.79952 | 27.08970 | 410 ft | 4 kts | 327° |
| 2026-05-07 11:19 | 36.79983 | 27.08946 | 413 ft | 6 kts | 327° |
| 2026-05-07 11:19 | 36.80025 | 27.08912 | 421 ft | 8 kts | 327° |
| 2026-05-07 11:19 | 36.80080 | 27.08869 | 418 ft | 10 kts | 327° |
| 2026-05-07 11:19 | 36.80144 | 27.08818 | 419 ft | 12 kts | 328° |
| 2026-05-07 11:20 | 36.80216 | 27.08762 | 420 ft | 12 kts | 329° |
| 2026-05-07 11:20 | 36.80292 | 27.08701 | 414 ft | 14 kts | 323° |
| 2026-05-07 11:20 | 36.80338 | 27.08598 | 417 ft | 15 kts | 282° |
| 2026-05-07 11:20 | 36.80357 | 27.08494 | 424 ft | 11 kts | 283° |
| 2026-05-07 11:21 | 36.80346 | 27.08429 | 416 ft | 7 kts | 196° |
| 2026-05-07 11:21 | 36.80297 | 27.08462 | 422 ft | 11 kts | 148° |
| 2026-05-07 11:21 | 36.80175 | 27.08558 | 416 ft | 38 kts | 148° |
| 2026-05-07 11:21 | 36.79734 | 27.08900 | 413 ft | 109 kts | 148° |
| 2026-05-07 11:22 | 36.78906 | 27.09543 | 405 ft | 167 kts | 149° |
| 2026-05-07 11:22 | 36.77964 | 27.10295 | 571 ft | 169 kts | 150° |
| 2026-05-07 11:22 | 36.76929 | 27.11106 | 1233 ft | 181 kts | 148° |
| 2026-05-07 11:22 | 36.75831 | 27.11986 | 2012 ft | 192 kts | 148° |
| 2026-05-07 11:23 | 36.74757 | 27.12948 | 2882 ft | 189 kts | 138° |
| 2026-05-07 11:23 | 36.74050 | 27.14342 | 3532 ft | 199 kts | 102° |
| 2026-05-07 11:23 | 36.74196 | 27.16041 | 4228 ft | 203 kts | 63° |
| 2026-05-07 11:23 | 36.74951 | 27.17529 | 5005 ft | 207 kts | 54° |
| 2026-05-07 11:24 | 36.75794 | 27.19070 | 5446 ft | 222 kts | 55° |
| 2026-05-07 11:24 | 36.76688 | 27.20762 | 5824 ft | 246 kts | 57° |
| 2026-05-07 11:24 | 36.77602 | 27.22568 | 6810 ft | 242 kts | 57° |
| 2026-05-07 11:24 | 36.78498 | 27.24325 | 7843 ft | 241 kts | 56° |
| 2026-05-07 11:25 | 36.79440 | 27.26118 | 8525 ft | 254 kts | 54° |
| 2026-05-07 11:25 | 36.80521 | 27.27789 | 9504 ft | 246 kts | 36° |
| 2026-05-07 11:25 | 36.82055 | 27.28578 | 10309 ft | 246 kts | 1° |
| 2026-05-07 11:25 | 36.83709 | 27.28088 | 10962 ft | 250 kts | 329° |
| 2026-05-07 11:26 | 36.85023 | 27.26732 | 11964 ft | 240 kts | 320° |
| 2026-05-07 11:26 | 36.86363 | 27.25495 | 12773 ft | 244 kts | 329° |
| 2026-05-07 11:26 | 36.87870 | 27.24366 | 13177 ft | 262 kts | 329° |
| 2026-05-07 11:26 | 36.89490 | 27.23138 | 13543 ft | 282 kts | 329° |
| 2026-05-07 11:27 | 36.91221 | 27.21813 | 13856 ft | 302 kts | 328° |
| 2026-05-07 11:27 | 36.93062 | 27.20394 | 14160 ft | 320 kts | 328° |
| 2026-05-07 11:27 | 36.94993 | 27.18900 | 14584 ft | 331 kts | 328° |
| 2026-05-07 11:27 | 36.96953 | 27.17380 | 15306 ft | 332 kts | 328° |
| 2026-05-07 11:28 | 36.98924 | 27.15851 | 15921 ft | 336 kts | 327° |
| 2026-05-07 11:28 | 37.00922 | 27.14299 | 16585 ft | 339 kts | 327° |
| 2026-05-07 11:28 | 37.02936 | 27.12733 | 17219 ft | 342 kts | 327° |
| 2026-05-07 11:28 | 37.04968 | 27.11153 | 17853 ft | 345 kts | 327° |
| 2026-05-07 11:29 | 37.07016 | 27.09559 | 18479 ft | 348 kts | 327° |
| 2026-05-07 11:29 | 37.09080 | 27.07952 | 19006 ft | 350 kts | 327° |
| 2026-05-07 11:29 | 37.11156 | 27.06335 | 19526 ft | 353 kts | 327° |
| 2026-05-07 11:29 | 37.13249 | 27.04703 | 20048 ft | 356 kts | 327° |
| 2026-05-07 11:30 | 37.15357 | 27.03057 | 20551 ft | 358 kts | 327° |
| 2026-05-07 11:30 | 37.17482 | 27.01398 | 21067 ft | 361 kts | 327° |
| 2026-05-07 11:30 | 37.19624 | 26.99725 | 21578 ft | 363 kts | 327° |
| 2026-05-07 11:30 | 37.21749 | 26.98063 | 22082 ft | 366 kts | 327° |
| 2026-05-07 11:31 | 37.23919 | 26.96365 | 22587 ft | 369 kts | 327° |
| 2026-05-07 11:31 | 37.26108 | 26.94651 | 23089 ft | 372 kts | 327° |
| 2026-05-07 11:31 | 37.28312 | 26.92924 | 23591 ft | 375 kts | 327° |
| 2026-05-07 11:31 | 37.30540 | 26.91177 | 24023 ft | 378 kts | 327° |
| 2026-05-07 11:32 | 37.35024 | 26.87657 | 24883 ft | 382 kts | 326° |
| 2026-05-07 11:32 | 37.37286 | 26.85880 | 25290 ft | 385 kts | 326° |
| 2026-05-07 11:32 | 37.39565 | 26.84070 | 25635 ft | 388 kts | 323° |
| 2026-05-07 11:33 | 37.41652 | 26.81919 | 26052 ft | 389 kts | 318° |
| 2026-05-07 11:33 | 37.43717 | 26.79701 | 26428 ft | 392 kts | 318° |
| 2026-05-07 11:33 | 37.45792 | 26.77467 | 26831 ft | 394 kts | 318° |
| 2026-05-07 11:33 | 37.47875 | 26.75220 | 27225 ft | 396 kts | 317° |
| 2026-05-07 11:34 | 37.49971 | 26.72956 | 27605 ft | 398 kts | 317° |
| 2026-05-07 11:34 | 37.52081 | 26.70674 | 27982 ft | 401 kts | 317° |
| 2026-05-07 11:34 | 37.54199 | 26.68382 | 28353 ft | 403 kts | 317° |
| 2026-05-07 11:34 | 37.56330 | 26.66074 | 28727 ft | 405 kts | 317° |
| 2026-05-07 11:35 | 37.58474 | 26.63751 | 29079 ft | 407 kts | 317° |
| 2026-05-07 11:35 | 37.60625 | 26.61418 | 29433 ft | 409 kts | 317° |
| 2026-05-07 11:35 | 37.62789 | 26.59069 | 29784 ft | 411 kts | 317° |
| 2026-05-07 11:35 | 37.64963 | 26.56707 | 30123 ft | 414 kts | 317° |
| 2026-05-07 11:36 | 37.66407 | 26.55137 | 30303 ft | 416 kts | 317° |
| 2026-05-07 11:36 | 37.68614 | 26.52740 | 30509 ft | 420 kts | 317° |
| 2026-05-07 11:36 | 37.70826 | 26.50338 | 30856 ft | 420 kts | 317° |
| 2026-05-07 11:36 | 37.73767 | 26.47141 | 31252 ft | 422 kts | 317° |
| 2026-05-07 11:37 | 37.75994 | 26.44719 | 31562 ft | 423 kts | 316° |
| 2026-05-07 11:37 | 37.77503 | 26.43076 | 31770 ft | 424 kts | 316° |
| 2026-05-07 11:37 | 37.79740 | 26.40639 | 32067 ft | 425 kts | 316° |
| 2026-05-07 11:37 | 37.81980 | 26.38197 | 32406 ft | 425 kts | 316° |
| 2026-05-07 11:38 | 37.84193 | 26.35782 | 32796 ft | 424 kts | 316° |
| 2026-05-07 11:38 | 37.86419 | 26.33350 | 33206 ft | 422 kts | 316° |
| 2026-05-07 11:38 | 37.88634 | 26.30921 | 33627 ft | 420 kts | 316° |
| 2026-05-07 11:38 | 37.90836 | 26.28505 | 34055 ft | 418 kts | 316° |
| 2026-05-07 11:39 | 37.93033 | 26.26095 | 34423 ft | 416 kts | 316° |
| 2026-05-07 11:39 | 37.95214 | 26.23699 | 34737 ft | 415 kts | 316° |
| 2026-05-07 11:39 | 37.97400 | 26.21296 | 35015 ft | 415 kts | 316° |
| 2026-05-07 11:39 | 37.99573 | 26.18904 | 35331 ft | 413 kts | 316° |
| 2026-05-07 11:40 | 38.01739 | 26.16519 | 35648 ft | 411 kts | 316° |
| 2026-05-07 11:40 | 38.03895 | 26.14143 | 35954 ft | 410 kts | 316° |
| 2026-05-07 11:40 | 38.06046 | 26.11769 | 36158 ft | 410 kts | 316° |
| 2026-05-07 11:41 | 38.10301 | 26.07067 | 36153 ft | 406 kts | 316° |
| 2026-05-07 11:41 | 38.14566 | 26.02347 | 36154 ft | 408 kts | 316° |
| 2026-05-07 11:42 | 38.18849 | 25.97600 | 36157 ft | 409 kts | 316° |
| 2026-05-07 11:42 | 38.23129 | 25.92848 | 36153 ft | 409 kts | 316° |
| 2026-05-07 11:43 | 38.27587 | 25.88315 | 36184 ft | 411 kts | 320° |
| 2026-05-07 11:43 | 38.32118 | 25.83878 | 36150 ft | 410 kts | 319° |
| 2026-05-07 11:44 | 38.36642 | 25.79419 | 36150 ft | 411 kts | 319° |
| 2026-05-07 11:44 | 38.41184 | 25.74988 | 36151 ft | 411 kts | 320° |
| 2026-05-07 11:45 | 38.45703 | 25.70573 | 36146 ft | 412 kts | 319° |
| 2026-05-07 11:45 | 38.50261 | 25.66113 | 36147 ft | 413 kts | 319° |
| 2026-05-07 11:46 | 38.54822 | 25.61643 | 36143 ft | 413 kts | 320° |
| 2026-05-07 11:46 | 38.59376 | 25.57172 | 36153 ft | 413 kts | 319° |
| 2026-05-07 11:47 | 38.63927 | 25.52697 | 36137 ft | 413 kts | 319° |
| 2026-05-07 11:47 | 38.68480 | 25.48213 | 36150 ft | 414 kts | 319° |
| 2026-05-07 11:48 | 38.73048 | 25.43707 | 36140 ft | 415 kts | 319° |
| 2026-05-07 11:48 | 38.77595 | 25.39214 | 36135 ft | 415 kts | 319° |
| 2026-05-07 11:49 | 38.82153 | 25.34703 | 36135 ft | 415 kts | 319° |
| 2026-05-07 11:49 | 38.86722 | 25.30173 | 36134 ft | 415 kts | 319° |
| 2026-05-07 11:50 | 38.91300 | 25.25626 | 36128 ft | 416 kts | 319° |
| 2026-05-07 11:50 | 38.95872 | 25.21078 | 36138 ft | 416 kts | 319° |
| 2026-05-07 11:51 | 39.00456 | 25.16511 | 36131 ft | 417 kts | 319° |
| 2026-05-07 11:51 | 39.05036 | 25.11940 | 36129 ft | 417 kts | 319° |
| 2026-05-07 11:52 | 39.09572 | 25.07280 | 36129 ft | 417 kts | 318° |
| 2026-05-07 11:52 | 39.14096 | 25.02605 | 36129 ft | 417 kts | 318° |
| 2026-05-07 11:53 | 39.18624 | 24.97922 | 36232 ft | 419 kts | 318° |
| 2026-05-07 11:53 | 39.20894 | 24.95573 | 36494 ft | 418 kts | 318° |
| 2026-05-07 11:53 | 39.23155 | 24.93229 | 36717 ft | 418 kts | 318° |
| 2026-05-07 11:53 | 39.25422 | 24.90879 | 36920 ft | 418 kts | 318° |
| 2026-05-07 11:54 | 39.27691 | 24.88522 | 37152 ft | 418 kts | 318° |
| 2026-05-07 11:54 | 39.29954 | 24.86171 | 37385 ft | 417 kts | 318° |
| 2026-05-07 11:54 | 39.32181 | 24.83856 | 37632 ft | 416 kts | 318° |
| 2026-05-07 11:54 | 39.34427 | 24.81518 | 37879 ft | 414 kts | 318° |
| 2026-05-07 11:55 | 39.36670 | 24.79182 | 38103 ft | 413 kts | 318° |
| 2026-05-07 11:55 | 39.41137 | 24.74523 | 38117 ft | 411 kts | 318° |
| 2026-05-07 11:56 | 39.45582 | 24.69879 | 38130 ft | 411 kts | 318° |
| 2026-05-07 11:56 | 39.50032 | 24.65223 | 38140 ft | 412 kts | 318° |
| 2026-05-07 11:57 | 39.54492 | 24.60547 | 38130 ft | 413 kts | 318° |
| 2026-05-07 11:57 | 39.58958 | 24.55857 | 38127 ft | 413 kts | 318° |
| 2026-05-07 11:58 | 39.63416 | 24.51168 | 38130 ft | 413 kts | 318° |
| 2026-05-07 11:58 | 39.67845 | 24.46501 | 38130 ft | 413 kts | 318° |
| 2026-05-07 11:59 | 39.72304 | 24.41795 | 38129 ft | 413 kts | 317° |
| 2026-05-07 11:59 | 39.76789 | 24.37053 | 38149 ft | 412 kts | 317° |
| 2026-05-07 12:00 | 39.81191 | 24.32390 | 38134 ft | 410 kts | 317° |
| 2026-05-07 12:00 | 39.85621 | 24.27691 | 38132 ft | 411 kts | 317° |
| 2026-05-07 12:01 | 39.90047 | 24.22987 | 38139 ft | 411 kts | 317° |
| 2026-05-07 12:01 | 39.94474 | 24.18274 | 38141 ft | 411 kts | 317° |
| 2026-05-07 12:02 | 39.98897 | 24.13557 | 38140 ft | 411 kts | 317° |
| 2026-05-07 12:02 | 40.03317 | 24.08835 | 38153 ft | 411 kts | 317° |
| 2026-05-07 12:03 | 40.07742 | 24.04100 | 38135 ft | 412 kts | 317° |
| 2026-05-07 12:03 | 40.12190 | 23.99333 | 38127 ft | 413 kts | 316° |
| 2026-05-07 12:04 | 40.16599 | 23.94598 | 38141 ft | 413 kts | 316° |
| 2026-05-07 12:04 | 40.21036 | 23.89825 | 38127 ft | 413 kts | 316° |
| 2026-05-07 12:05 | 40.25471 | 23.85045 | 38136 ft | 413 kts | 316° |
| 2026-05-07 12:05 | 40.29906 | 23.80258 | 38133 ft | 413 kts | 316° |
| 2026-05-07 12:06 | 40.34341 | 23.75462 | 38136 ft | 413 kts | 316° |
| 2026-05-07 12:06 | 40.38774 | 23.70660 | 38138 ft | 414 kts | 316° |
| 2026-05-07 12:07 | 40.43219 | 23.65836 | 38143 ft | 415 kts | 316° |
| 2026-05-07 12:07 | 40.47660 | 23.61007 | 38139 ft | 415 kts | 316° |
| 2026-05-07 12:08 | 40.52100 | 23.56172 | 38140 ft | 415 kts | 316° |
| 2026-05-07 12:08 | 40.56509 | 23.51361 | 38155 ft | 415 kts | 316° |
| 2026-05-07 12:09 | 40.60944 | 23.46515 | 38142 ft | 414 kts | 316° |
| 2026-05-07 12:09 | 40.65378 | 23.41661 | 38137 ft | 416 kts | 316° |
| 2026-05-07 12:10 | 40.69848 | 23.36757 | 38163 ft | 421 kts | 316° |
| 2026-05-07 12:10 | 40.74346 | 23.31814 | 38151 ft | 421 kts | 316° |
| 2026-05-07 12:11 | 40.78835 | 23.26873 | 38149 ft | 421 kts | 316° |
| 2026-05-07 12:11 | 40.83325 | 23.21921 | 38166 ft | 421 kts | 316° |
| 2026-05-07 12:12 | 40.87815 | 23.16959 | 38159 ft | 421 kts | 316° |
| 2026-05-07 12:12 | 40.92301 | 23.11994 | 38152 ft | 421 kts | 316° |
| 2026-05-07 12:13 | 40.96791 | 23.07016 | 38163 ft | 422 kts | 316° |
| 2026-05-07 12:13 | 41.01291 | 23.02015 | 38156 ft | 422 kts | 316° |
| 2026-05-07 12:14 | 41.05764 | 22.97037 | 38156 ft | 422 kts | 316° |
| 2026-05-07 12:14 | 41.10268 | 22.92015 | 38167 ft | 423 kts | 316° |
| 2026-05-07 12:15 | 41.14769 | 22.86986 | 38154 ft | 423 kts | 316° |
| 2026-05-07 12:15 | 41.19276 | 22.81942 | 38157 ft | 424 kts | 316° |
| 2026-05-07 12:16 | 41.23780 | 22.76891 | 38142 ft | 424 kts | 315° |
| 2026-05-07 12:16 | 41.27839 | 22.71260 | 38156 ft | 423 kts | 309° |
| 2026-05-07 12:17 | 41.31805 | 22.65484 | 38152 ft | 423 kts | 309° |
| 2026-05-07 12:17 | 41.35760 | 22.59693 | 38168 ft | 423 kts | 309° |
| 2026-05-07 12:18 | 41.39650 | 22.53985 | 38152 ft | 424 kts | 309° |
| 2026-05-07 12:18 | 41.43646 | 22.48107 | 38145 ft | 424 kts | 309° |
| 2026-05-07 12:19 | 41.47602 | 22.42278 | 38147 ft | 424 kts | 308° |
| 2026-05-07 12:19 | 41.51549 | 22.36451 | 38143 ft | 423 kts | 308° |
| 2026-05-07 12:20 | 41.55494 | 22.30615 | 38141 ft | 424 kts | 308° |
| 2026-05-07 12:20 | 41.59441 | 22.24764 | 38136 ft | 424 kts | 308° |
| 2026-05-07 12:21 | 41.63385 | 22.18907 | 38137 ft | 424 kts | 308° |
| 2026-05-07 12:21 | 41.67331 | 22.13036 | 38121 ft | 426 kts | 308° |
| 2026-05-07 12:22 | 41.71300 | 22.07117 | 38140 ft | 429 kts | 308° |
| 2026-05-07 12:22 | 41.75278 | 22.01175 | 38138 ft | 428 kts | 308° |
| 2026-05-07 12:23 | 41.79253 | 21.95224 | 38127 ft | 428 kts | 308° |
| 2026-05-07 12:23 | 41.83197 | 21.89308 | 38122 ft | 428 kts | 308° |
| 2026-05-07 12:24 | 41.87168 | 21.83340 | 38116 ft | 428 kts | 308° |
| 2026-05-07 12:24 | 41.91128 | 21.77374 | 38133 ft | 428 kts | 308° |
| 2026-05-07 12:25 | 41.95092 | 21.71392 | 38143 ft | 430 kts | 308° |
| 2026-05-07 12:25 | 41.98396 | 21.66397 | 38129 ft | 429 kts | 308° |
| 2026-05-07 12:26 | 42.02362 | 21.60390 | 38136 ft | 430 kts | 308° |
| 2026-05-07 12:26 | 42.06331 | 21.54365 | 38141 ft | 430 kts | 308° |
| 2026-05-07 12:27 | 42.10297 | 21.48335 | 38109 ft | 429 kts | 308° |
| 2026-05-07 12:27 | 42.14255 | 21.42306 | 38116 ft | 430 kts | 308° |
| 2026-05-07 12:28 | 42.18148 | 21.36190 | 38115 ft | 430 kts | 306° |
| 2026-05-07 12:28 | 42.22000 | 21.30082 | 38120 ft | 430 kts | 306° |
| 2026-05-07 12:29 | 42.25877 | 21.23932 | 38121 ft | 430 kts | 306° |
| 2026-05-07 12:29 | 42.29749 | 21.17774 | 38117 ft | 430 kts | 306° |
| 2026-05-07 12:30 | 42.33617 | 21.11611 | 38136 ft | 430 kts | 306° |
| 2026-05-07 12:30 | 42.37486 | 21.05433 | 38127 ft | 430 kts | 306° |
| 2026-05-07 12:31 | 42.41348 | 20.99254 | 38128 ft | 431 kts | 306° |
| 2026-05-07 12:31 | 42.45216 | 20.93052 | 38133 ft | 431 kts | 306° |
| 2026-05-07 12:32 | 42.49070 | 20.86860 | 38127 ft | 431 kts | 306° |
| 2026-05-07 12:32 | 42.52912 | 20.80675 | 38129 ft | 431 kts | 306° |
| 2026-05-07 12:33 | 42.58701 | 20.71330 | 38117 ft | 431 kts | 306° |
| 2026-05-07 12:33 | 42.62558 | 20.65088 | 38116 ft | 431 kts | 306° |
| 2026-05-07 12:34 | 42.66403 | 20.58850 | 38103 ft | 431 kts | 306° |
| 2026-05-07 12:34 | 42.70224 | 20.52640 | 38100 ft | 431 kts | 306° |
| 2026-05-07 12:35 | 42.74066 | 20.46381 | 38108 ft | 431 kts | 306° |
| 2026-05-07 12:35 | 42.77909 | 20.40109 | 38096 ft | 432 kts | 306° |
| 2026-05-07 12:36 | 42.81756 | 20.33819 | 38081 ft | 432 kts | 306° |
| 2026-05-07 12:36 | 42.85928 | 20.27879 | 38103 ft | 436 kts | 311° |
| 2026-05-07 12:37 | 42.90314 | 20.22148 | 38074 ft | 436 kts | 312° |
| 2026-05-07 12:37 | 42.94684 | 20.16453 | 38072 ft | 437 kts | 312° |
| 2026-05-07 12:38 | 42.99070 | 20.10730 | 38072 ft | 435 kts | 311° |
| 2026-05-07 12:38 | 43.03431 | 20.05027 | 38048 ft | 434 kts | 311° |
| 2026-05-07 12:39 | 43.07792 | 19.99313 | 38046 ft | 434 kts | 311° |
| 2026-05-07 12:39 | 43.12145 | 19.93597 | 38044 ft | 433 kts | 311° |
| 2026-05-07 12:40 | 43.16495 | 19.87873 | 38051 ft | 434 kts | 311° |
| 2026-05-07 12:40 | 43.20840 | 19.82143 | 38045 ft | 434 kts | 311° |
| 2026-05-07 12:41 | 43.25159 | 19.76437 | 38044 ft | 433 kts | 311° |
| 2026-05-07 12:41 | 43.29494 | 19.70697 | 38048 ft | 434 kts | 311° |
| 2026-05-07 12:42 | 43.33831 | 19.64943 | 38039 ft | 433 kts | 311° |
| 2026-05-07 12:42 | 43.38158 | 19.59189 | 38041 ft | 433 kts | 311° |
| 2026-05-07 12:43 | 43.42485 | 19.53423 | 38050 ft | 432 kts | 311° |
| 2026-05-07 12:43 | 43.46803 | 19.47659 | 38038 ft | 432 kts | 311° |
| 2026-05-07 12:44 | 43.51111 | 19.41894 | 37961 ft | 430 kts | 311° |
| 2026-05-07 12:44 | 43.55404 | 19.36138 | 38058 ft | 433 kts | 311° |
| 2026-05-07 12:45 | 43.59735 | 19.30318 | 38038 ft | 434 kts | 311° |
| 2026-05-07 12:45 | 43.64057 | 19.24499 | 38018 ft | 433 kts | 311° |
| 2026-05-07 12:46 | 43.68361 | 19.18690 | 38044 ft | 433 kts | 311° |
| 2026-05-07 12:46 | 43.72665 | 19.12870 | 38027 ft | 433 kts | 311° |
| 2026-05-07 12:47 | 43.76967 | 19.07041 | 38048 ft | 433 kts | 311° |
| 2026-05-07 12:47 | 43.81277 | 19.01187 | 38055 ft | 435 kts | 311° |
| 2026-05-07 12:48 | 43.85581 | 18.95331 | 38026 ft | 433 kts | 310° |
| 2026-05-07 12:48 | 43.89842 | 18.89519 | 38029 ft | 433 kts | 310° |
| 2026-05-07 12:49 | 43.94135 | 18.83651 | 38036 ft | 433 kts | 310° |
| 2026-05-07 12:49 | 43.98429 | 18.77771 | 38033 ft | 433 kts | 310° |
| 2026-05-07 12:50 | 44.02711 | 18.71894 | 38048 ft | 432 kts | 310° |
| 2026-05-07 12:50 | 44.06995 | 18.66000 | 38041 ft | 434 kts | 310° |
| 2026-05-07 12:51 | 44.11286 | 18.60085 | 38038 ft | 434 kts | 310° |
| 2026-05-07 12:51 | 44.15572 | 18.54165 | 38036 ft | 434 kts | 310° |
| 2026-05-07 12:52 | 44.19826 | 18.48275 | 38033 ft | 434 kts | 310° |
| 2026-05-07 12:52 | 44.24097 | 18.42349 | 38036 ft | 434 kts | 310° |
| 2026-05-07 12:53 | 44.28366 | 18.36412 | 38039 ft | 434 kts | 310° |
| 2026-05-07 12:53 | 44.32647 | 18.30447 | 38030 ft | 435 kts | 310° |
| 2026-05-07 12:54 | 44.36930 | 18.24465 | 38025 ft | 435 kts | 310° |
| 2026-05-07 12:54 | 44.41205 | 18.18482 | 38027 ft | 434 kts | 310° |
| 2026-05-07 12:55 | 44.45469 | 18.12500 | 38019 ft | 434 kts | 310° |
| 2026-05-07 12:55 | 44.49731 | 18.06508 | 38022 ft | 434 kts | 310° |
| 2026-05-07 12:56 | 44.53996 | 18.00499 | 38032 ft | 434 kts | 309° |
| 2026-05-07 12:56 | 44.58232 | 17.94519 | 38035 ft | 435 kts | 309° |
| 2026-05-07 12:57 | 44.62481 | 17.88506 | 38041 ft | 434 kts | 309° |
| 2026-05-07 12:57 | 44.66732 | 17.82477 | 38034 ft | 434 kts | 309° |
| 2026-05-07 12:58 | 44.70978 | 17.76442 | 38031 ft | 434 kts | 309° |
| 2026-05-07 12:58 | 44.75218 | 17.70402 | 38034 ft | 434 kts | 309° |
| 2026-05-07 12:59 | 44.79438 | 17.64376 | 38036 ft | 430 kts | 309° |
| 2026-05-07 12:59 | 44.83655 | 17.58343 | 38046 ft | 433 kts | 309° |
| 2026-05-07 13:00 | 44.87850 | 17.52327 | 38053 ft | 432 kts | 309° |
| 2026-05-07 13:00 | 44.92062 | 17.46274 | 38032 ft | 432 kts | 309° |
| 2026-05-07 13:01 | 44.96273 | 17.40213 | 38066 ft | 432 kts | 308° |
| 2026-05-07 13:01 | 45.00469 | 17.34159 | 38033 ft | 430 kts | 308° |
| 2026-05-07 13:02 | 45.04658 | 17.28103 | 38048 ft | 431 kts | 308° |
| 2026-05-07 13:02 | 45.08856 | 17.22020 | 38039 ft | 432 kts | 308° |
| 2026-05-07 13:03 | 45.13056 | 17.15926 | 38039 ft | 433 kts | 309° |
| 2026-05-07 13:03 | 45.17292 | 17.09847 | 38038 ft | 434 kts | 309° |
| 2026-05-07 13:04 | 45.21532 | 17.03759 | 38038 ft | 434 kts | 309° |
| 2026-05-07 13:04 | 45.25771 | 16.97657 | 38035 ft | 434 kts | 309° |
| 2026-05-07 13:05 | 45.30007 | 16.91546 | 38032 ft | 434 kts | 309° |
| 2026-05-07 13:05 | 45.34242 | 16.85422 | 38077 ft | 435 kts | 308° |
| 2026-05-07 13:06 | 45.38484 | 16.79275 | 38014 ft | 435 kts | 308° |
| 2026-05-07 13:06 | 45.42923 | 16.73370 | 38031 ft | 440 kts | 315° |
| 2026-05-07 13:07 | 45.47587 | 16.67810 | 38012 ft | 440 kts | 313° |
| 2026-05-07 13:07 | 45.52239 | 16.62147 | 38023 ft | 440 kts | 313° |
| 2026-05-07 13:08 | 45.56878 | 16.56476 | 38041 ft | 439 kts | 313° |
| 2026-05-07 13:08 | 45.61503 | 16.50810 | 38013 ft | 438 kts | 313° |
| 2026-05-07 13:09 | 45.66124 | 16.45133 | 38007 ft | 438 kts | 313° |
| 2026-05-07 13:09 | 45.70743 | 16.39447 | 38018 ft | 438 kts | 313° |
| 2026-05-07 13:10 | 45.75359 | 16.33752 | 38010 ft | 438 kts | 313° |
| 2026-05-07 13:10 | 45.79976 | 16.28043 | 38025 ft | 439 kts | 313° |
| 2026-05-07 13:11 | 45.84607 | 16.22303 | 38020 ft | 441 kts | 313° |
| 2026-05-07 13:11 | 45.89255 | 16.16529 | 38016 ft | 441 kts | 313° |
| 2026-05-07 13:12 | 45.93106 | 16.11735 | 38027 ft | 441 kts | 313° |
| 2026-05-07 13:12 | 45.98489 | 16.05018 | 37998 ft | 440 kts | 313° |
| 2026-05-07 13:13 | 46.03119 | 15.99227 | 37998 ft | 441 kts | 313° |
| 2026-05-07 13:13 | 46.06996 | 15.94368 | 37995 ft | 442 kts | 313° |
| 2026-05-07 13:14 | 46.11646 | 15.88526 | 37985 ft | 444 kts | 313° |
| 2026-05-07 13:14 | 46.16260 | 15.82716 | 37993 ft | 444 kts | 313° |
| 2026-05-07 13:15 | 46.20907 | 15.76851 | 37961 ft | 443 kts | 313° |
| 2026-05-07 13:15 | 46.25543 | 15.70987 | 37972 ft | 443 kts | 313° |
| 2026-05-07 13:16 | 46.30186 | 15.65099 | 37937 ft | 443 kts | 312° |
| 2026-05-07 13:16 | 46.34822 | 15.59207 | 37962 ft | 445 kts | 313° |
| 2026-05-07 13:17 | 46.39475 | 15.53281 | 37950 ft | 445 kts | 313° |
| 2026-05-07 13:17 | 46.44113 | 15.47358 | 37939 ft | 445 kts | 312° |
| 2026-05-07 13:18 | 46.48748 | 15.41427 | 37946 ft | 445 kts | 313° |
| 2026-05-07 13:18 | 46.53381 | 15.35481 | 37938 ft | 445 kts | 312° |
| 2026-05-07 13:19 | 46.58013 | 15.29526 | 37945 ft | 445 kts | 313° |
| 2026-05-07 13:19 | 46.62651 | 15.23546 | 37928 ft | 445 kts | 313° |
| 2026-05-07 13:20 | 46.67236 | 15.17493 | 37912 ft | 444 kts | 312° |
| 2026-05-07 13:20 | 46.71800 | 15.11419 | 37914 ft | 444 kts | 311° |
| 2026-05-07 13:21 | 46.76353 | 15.05346 | 37917 ft | 444 kts | 312° |
| 2026-05-07 13:21 | 46.80901 | 14.99268 | 37908 ft | 443 kts | 311° |
| 2026-05-07 13:22 | 46.85436 | 14.93191 | 37920 ft | 447 kts | 312° |
| 2026-05-07 13:22 | 46.90008 | 14.87053 | 37920 ft | 446 kts | 312° |
| 2026-05-07 13:23 | 46.94581 | 14.80896 | 37903 ft | 447 kts | 312° |
| 2026-05-07 13:23 | 46.99152 | 14.74727 | 37912 ft | 447 kts | 311° |
| 2026-05-07 13:24 | 47.03719 | 14.68550 | 37918 ft | 447 kts | 311° |
| 2026-05-07 13:24 | 47.08281 | 14.62364 | 37917 ft | 447 kts | 311° |
| 2026-05-07 13:25 | 47.12856 | 14.56144 | 37937 ft | 449 kts | 312° |
| 2026-05-07 13:25 | 47.17426 | 14.49916 | 37937 ft | 448 kts | 311° |
| 2026-05-07 13:26 | 47.21999 | 14.43668 | 37947 ft | 449 kts | 311° |
| 2026-05-07 13:26 | 47.26572 | 14.37406 | 37932 ft | 448 kts | 311° |
| 2026-05-07 13:27 | 47.31139 | 14.31136 | 37937 ft | 449 kts | 311° |
| 2026-05-07 13:27 | 47.35695 | 14.24865 | 37973 ft | 449 kts | 311° |
| 2026-05-07 13:28 | 47.40248 | 14.18583 | 37945 ft | 447 kts | 312° |
| 2026-05-07 13:28 | 47.44770 | 14.12329 | 37968 ft | 448 kts | 312° |
| 2026-05-07 13:29 | 47.49299 | 14.06049 | 37979 ft | 446 kts | 311° |
| 2026-05-07 13:29 | 47.53832 | 13.99750 | 37981 ft | 447 kts | 311° |
| 2026-05-07 13:30 | 47.58363 | 13.93433 | 37989 ft | 447 kts | 311° |
| 2026-05-07 13:30 | 47.62900 | 13.87096 | 37987 ft | 448 kts | 312° |
| 2026-05-07 13:31 | 47.67441 | 13.80736 | 38000 ft | 449 kts | 312° |
| 2026-05-07 13:31 | 47.71971 | 13.74375 | 37975 ft | 448 kts | 311° |
| 2026-05-07 13:32 | 47.76499 | 13.68003 | 38007 ft | 449 kts | 312° |
| 2026-05-07 13:32 | 47.81025 | 13.61616 | 37992 ft | 448 kts | 312° |
| 2026-05-07 13:33 | 47.85512 | 13.55269 | 38005 ft | 447 kts | 312° |
| 2026-05-07 13:33 | 47.90033 | 13.48858 | 37992 ft | 450 kts | 312° |
| 2026-05-07 13:34 | 47.96822 | 13.39197 | 38016 ft | 449 kts | 312° |
| 2026-05-07 13:35 | 48.01343 | 13.32745 | 38007 ft | 449 kts | 312° |
| 2026-05-07 13:35 | 48.05860 | 13.26281 | 38018 ft | 449 kts | 312° |
| 2026-05-07 13:36 | 48.10367 | 13.19820 | 38009 ft | 448 kts | 312° |
| 2026-05-07 13:36 | 48.14864 | 13.13356 | 38009 ft | 448 kts | 312° |
| 2026-05-07 13:37 | 48.19333 | 13.06916 | 38010 ft | 448 kts | 312° |
| 2026-05-07 13:37 | 48.23717 | 13.00289 | 38003 ft | 444 kts | 306° |
| 2026-05-07 13:38 | 48.27783 | 12.93287 | 38023 ft | 446 kts | 308° |
| 2026-05-07 13:38 | 48.31892 | 12.86327 | 38003 ft | 445 kts | 308° |
| 2026-05-07 13:39 | 48.36002 | 12.79365 | 38006 ft | 445 kts | 308° |
| 2026-05-07 13:39 | 48.40110 | 12.72388 | 38005 ft | 445 kts | 308° |
| 2026-05-07 13:40 | 48.44216 | 12.65397 | 38003 ft | 446 kts | 308° |
| 2026-05-07 13:40 | 48.48318 | 12.58395 | 38007 ft | 445 kts | 308° |
| 2026-05-07 13:41 | 48.52416 | 12.51381 | 38006 ft | 446 kts | 308° |
| 2026-05-07 13:41 | 48.56514 | 12.44347 | 38007 ft | 445 kts | 308° |
| 2026-05-07 13:42 | 48.60569 | 12.37368 | 38011 ft | 445 kts | 307° |
| 2026-05-07 13:42 | 48.64654 | 12.30322 | 38019 ft | 445 kts | 308° |
| 2026-05-07 13:43 | 48.68740 | 12.23253 | 38027 ft | 447 kts | 308° |
| 2026-05-07 13:43 | 48.72825 | 12.16145 | 38000 ft | 447 kts | 305° |
| 2026-05-07 13:43 | 48.74429 | 12.12191 | 37989 ft | 438 kts | 289° |
| 2026-05-07 13:44 | 48.75263 | 12.07796 | 38028 ft | 434 kts | 279° |
| 2026-05-07 13:44 | 48.76404 | 11.98781 | 38019 ft | 436 kts | 278° |
| 2026-05-07 13:45 | 48.77423 | 11.89715 | 38013 ft | 436 kts | 277° |
| 2026-05-07 13:45 | 48.78397 | 11.80650 | 38016 ft | 436 kts | 277° |
| 2026-05-07 13:46 | 48.79357 | 11.71585 | 38029 ft | 435 kts | 277° |
| 2026-05-07 13:46 | 48.80304 | 11.62570 | 38015 ft | 435 kts | 277° |
| 2026-05-07 13:47 | 48.82186 | 11.53890 | 38019 ft | 440 kts | 301° |
| 2026-05-07 13:47 | 48.86046 | 11.46640 | 38012 ft | 441 kts | 305° |
| 2026-05-07 13:48 | 48.89814 | 11.39284 | 38026 ft | 440 kts | 305° |
| 2026-05-07 13:48 | 48.93554 | 11.31917 | 37999 ft | 440 kts | 305° |
| 2026-05-07 13:48 | 48.95417 | 11.28237 | 37542 ft | 440 kts | 305° |
| 2026-05-07 13:49 | 48.97300 | 11.24504 | 36481 ft | 449 kts | 305° |
| 2026-05-07 13:49 | 48.99210 | 11.20712 | 35664 ft | 452 kts | 305° |
| 2026-05-07 13:49 | 49.01121 | 11.16921 | 35106 ft | 449 kts | 305° |
| 2026-05-07 13:49 | 49.03012 | 11.13164 | 34564 ft | 445 kts | 305° |
| 2026-05-07 13:50 | 49.04878 | 11.09455 | 34064 ft | 437 kts | 306° |
| 2026-05-07 13:50 | 49.06714 | 11.05800 | 33489 ft | 430 kts | 306° |
| 2026-05-07 13:50 | 49.08514 | 11.02207 | 32920 ft | 422 kts | 306° |
| 2026-05-07 13:50 | 49.10285 | 10.98672 | 32376 ft | 415 kts | 306° |
| 2026-05-07 13:51 | 49.11996 | 10.95249 | 31840 ft | 409 kts | 306° |
| 2026-05-07 13:51 | 49.13706 | 10.91825 | 31304 ft | 402 kts | 306° |
| 2026-05-07 13:51 | 49.15388 | 10.88454 | 30783 ft | 396 kts | 306° |
| 2026-05-07 13:51 | 49.17043 | 10.85130 | 30273 ft | 390 kts | 307° |
| 2026-05-07 13:52 | 49.18675 | 10.81849 | 29716 ft | 384 kts | 307° |
| 2026-05-07 13:52 | 49.20281 | 10.78617 | 29117 ft | 379 kts | 306° |
| 2026-05-07 13:52 | 49.21868 | 10.75421 | 28529 ft | 375 kts | 306° |
| 2026-05-07 13:52 | 49.23434 | 10.72260 | 27964 ft | 369 kts | 306° |
| 2026-05-07 13:53 | 49.24972 | 10.69154 | 27449 ft | 364 kts | 307° |
| 2026-05-07 13:53 | 49.26493 | 10.66080 | 26941 ft | 360 kts | 307° |
| 2026-05-07 13:53 | 49.27995 | 10.63038 | 26457 ft | 357 kts | 307° |
| 2026-05-07 13:53 | 49.29493 | 10.60002 | 25966 ft | 358 kts | 307° |
| 2026-05-07 13:54 | 49.30994 | 10.56956 | 25486 ft | 358 kts | 307° |
| 2026-05-07 13:54 | 49.32488 | 10.53919 | 25024 ft | 357 kts | 307° |
| 2026-05-07 13:54 | 49.33984 | 10.50876 | 24553 ft | 357 kts | 307° |
| 2026-05-07 13:54 | 49.35476 | 10.47838 | 24084 ft | 357 kts | 306° |
| 2026-05-07 13:55 | 49.36899 | 10.44770 | 23650 ft | 357 kts | 304° |
| 2026-05-07 13:55 | 49.38320 | 10.41649 | 23131 ft | 357 kts | 304° |
| 2026-05-07 13:55 | 49.39746 | 10.38530 | 22596 ft | 357 kts | 304° |
| 2026-05-07 13:55 | 49.41172 | 10.35410 | 22085 ft | 357 kts | 304° |
| 2026-05-07 13:56 | 49.42595 | 10.32295 | 21569 ft | 357 kts | 304° |
| 2026-05-07 13:56 | 49.44022 | 10.29171 | 21081 ft | 357 kts | 304° |
| 2026-05-07 13:56 | 49.45445 | 10.26052 | 20591 ft | 357 kts | 304° |
| 2026-05-07 13:56 | 49.46866 | 10.22932 | 20102 ft | 356 kts | 304° |
| 2026-05-07 13:57 | 49.48287 | 10.19810 | 19637 ft | 356 kts | 304° |
| 2026-05-07 13:57 | 49.49704 | 10.16692 | 19165 ft | 356 kts | 304° |
| 2026-05-07 13:57 | 49.51120 | 10.13572 | 18693 ft | 355 kts | 304° |
| 2026-05-07 13:57 | 49.52535 | 10.10451 | 18227 ft | 355 kts | 304° |
| 2026-05-07 13:58 | 49.53944 | 10.07336 | 17711 ft | 355 kts | 304° |
| 2026-05-07 13:58 | 49.55352 | 10.04215 | 17191 ft | 354 kts | 304° |
| 2026-05-07 13:58 | 49.56753 | 10.01104 | 16685 ft | 354 kts | 304° |
| 2026-05-07 13:58 | 49.57684 | 9.99039 | 16353 ft | 353 kts | 304° |
| 2026-05-07 13:59 | 49.59081 | 9.95931 | 15849 ft | 353 kts | 304° |
| 2026-05-07 13:59 | 49.60475 | 9.92826 | 15363 ft | 352 kts | 304° |
| 2026-05-07 13:59 | 49.61869 | 9.89720 | 14880 ft | 351 kts | 304° |
| 2026-05-07 13:59 | 49.63248 | 9.86643 | 14546 ft | 347 kts | 304° |
| 2026-05-07 14:00 | 49.64603 | 9.83615 | 14318 ft | 339 kts | 304° |
| 2026-05-07 14:00 | 49.65930 | 9.80648 | 14086 ft | 333 kts | 304° |
| 2026-05-07 14:00 | 49.67239 | 9.77718 | 13854 ft | 330 kts | 304° |
| 2026-05-07 14:00 | 49.68540 | 9.74802 | 13582 ft | 329 kts | 304° |
| 2026-05-07 14:01 | 49.69838 | 9.71890 | 13228 ft | 328 kts | 304° |
| 2026-05-07 14:01 | 49.71128 | 9.68991 | 12844 ft | 327 kts | 304° |
| 2026-05-07 14:01 | 49.72414 | 9.66100 | 12461 ft | 325 kts | 304° |
| 2026-05-07 14:01 | 49.73693 | 9.63229 | 12089 ft | 323 kts | 305° |
| 2026-05-07 14:02 | 49.75152 | 9.60594 | 11720 ft | 322 kts | 311° |
| 2026-05-07 14:02 | 49.76641 | 9.58026 | 11360 ft | 320 kts | 311° |
| 2026-05-07 14:02 | 49.78110 | 9.55457 | 11001 ft | 318 kts | 310° |
| 2026-05-07 14:02 | 49.79561 | 9.52894 | 10717 ft | 315 kts | 310° |
| 2026-05-07 14:03 | 49.80997 | 9.50343 | 10488 ft | 313 kts | 311° |
| 2026-05-07 14:03 | 49.82424 | 9.47797 | 10206 ft | 314 kts | 311° |
| 2026-05-07 14:03 | 49.83833 | 9.45281 | 9931 ft | 312 kts | 310° |
| 2026-05-07 14:03 | 49.85250 | 9.42745 | 9628 ft | 310 kts | 310° |
| 2026-05-07 14:04 | 49.86656 | 9.40224 | 9311 ft | 308 kts | 310° |
| 2026-05-07 14:04 | 49.88055 | 9.37715 | 9007 ft | 307 kts | 310° |
| 2026-05-07 14:04 | 49.89446 | 9.35218 | 8704 ft | 305 kts | 310° |
| 2026-05-07 14:04 | 49.90832 | 9.32727 | 8400 ft | 304 kts | 310° |
| 2026-05-07 14:05 | 49.92205 | 9.30257 | 8104 ft | 300 kts | 310° |
| 2026-05-07 14:05 | 49.93557 | 9.27822 | 7864 ft | 295 kts | 310° |
| 2026-05-07 14:05 | 49.94879 | 9.25440 | 7618 ft | 289 kts | 310° |
| 2026-05-07 14:05 | 49.96181 | 9.23092 | 7372 ft | 284 kts | 310° |
| 2026-05-07 14:06 | 49.97460 | 9.20782 | 7129 ft | 279 kts | 310° |
| 2026-05-07 14:06 | 49.98716 | 9.18513 | 6887 ft | 275 kts | 310° |
| 2026-05-07 14:06 | 49.99953 | 9.16275 | 6646 ft | 271 kts | 310° |
| 2026-05-07 14:06 | 50.01172 | 9.14069 | 6417 ft | 267 kts | 310° |
| 2026-05-07 14:07 | 50.02370 | 9.11898 | 6148 ft | 263 kts | 310° |
| 2026-05-07 14:07 | 50.03553 | 9.09752 | 5890 ft | 260 kts | 310° |
| 2026-05-07 14:07 | 50.04722 | 9.07632 | 5638 ft | 256 kts | 310° |
| 2026-05-07 14:07 | 50.05876 | 9.05536 | 5393 ft | 253 kts | 310° |
| 2026-05-07 14:08 | 50.07016 | 9.03464 | 5138 ft | 251 kts | 310° |
| 2026-05-07 14:08 | 50.08144 | 9.01412 | 4905 ft | 249 kts | 310° |
| 2026-05-07 14:08 | 50.09268 | 8.99367 | 4649 ft | 247 kts | 310° |
| 2026-05-07 14:08 | 50.10379 | 8.97343 | 4398 ft | 245 kts | 310° |
| 2026-05-07 14:09 | 50.11371 | 8.95216 | 4142 ft | 243 kts | 294° |
| 2026-05-07 14:09 | 50.11704 | 8.92677 | 4042 ft | 236 kts | 275° |
| 2026-05-07 14:09 | 50.11771 | 8.90179 | 4023 ft | 227 kts | 274° |
| 2026-05-07 14:09 | 50.11826 | 8.87758 | 4010 ft | 218 kts | 274° |
| 2026-05-07 14:10 | 50.11812 | 8.85466 | 3987 ft | 206 kts | 259° |
| 2026-05-07 14:10 | 50.11158 | 8.83585 | 4031 ft | 194 kts | 229° |
| 2026-05-07 14:10 | 50.10175 | 8.82225 | 3884 ft | 189 kts | 223° |
| 2026-05-07 14:10 | 50.09298 | 8.80713 | 3515 ft | 189 kts | 240° |
| 2026-05-07 14:11 | 50.08756 | 8.78877 | 3250 ft | 184 kts | 254° |
| 2026-05-07 14:11 | 50.08381 | 8.76984 | 2945 ft | 184 kts | 255° |
| 2026-05-07 14:11 | 50.07977 | 8.75095 | 2654 ft | 183 kts | 251° |
| 2026-05-07 14:11 | 50.07509 | 8.73262 | 2379 ft | 182 kts | 249° |
| 2026-05-07 14:12 | 50.07022 | 8.71450 | 2071 ft | 181 kts | 250° |
| 2026-05-07 14:12 | 50.06581 | 8.69639 | 1756 ft | 176 kts | 252° |
| 2026-05-07 14:12 | 50.06197 | 8.67902 | 1539 ft | 160 kts | 253° |
| 2026-05-07 14:12 | 50.05838 | 8.66320 | 1316 ft | 154 kts | 251° |
| 2026-05-07 14:13 | 50.05474 | 8.64827 | 1223 ft | 142 kts | 250° |
| 2026-05-07 14:13 | 50.05134 | 8.63409 | 1076 ft | 138 kts | 251° |
| 2026-05-07 14:13 | 50.04814 | 8.61998 | 882 ft | 137 kts | 252° |
| 2026-05-07 14:13 | 50.04478 | 8.60619 | 679 ft | 137 kts | 250° |
| 2026-05-07 14:14 | 50.04144 | 8.59242 | 508 ft | 136 kts | 249° |
| 2026-05-07 14:14 | 50.03816 | 8.57864 | 376 ft | 131 kts | 249° |
| 2026-05-07 14:14 | 50.03538 | 8.56699 | 354 ft | 95 kts | 250° |
| 2026-05-07 14:14 | 50.03387 | 8.56067 | 355 ft | 34 kts | 249° |
| 2026-05-07 14:15 | 50.03297 | 8.55717 | 350 ft | 30 kts | 238° |
| 2026-05-07 14:15 | 50.03169 | 8.55491 | 349 ft | 20 kts | 219° |
| 2026-05-07 14:15 | 50.03103 | 8.55427 | 352 ft | 2 kts | 184° |
| 2026-05-07 14:15 | 50.03101 | 8.55427 | 347 ft | 0 kts | 180° |
| 2026-05-07 14:16 | 50.03098 | 8.55428 | 348 ft | 2 kts | 175° |
| 2026-05-07 14:16 | 50.03076 | 8.55445 | 355 ft | 6 kts | 139° |
| 2026-05-07 14:16 | 50.03066 | 8.55522 | 345 ft | 9 kts | 73° |
| 2026-05-07 14:16 | 50.03101 | 8.55667 | 347 ft | 20 kts | 69° |
| 2026-05-07 14:17 | 50.03162 | 8.55918 | 353 ft | 29 kts | 70° |
| 2026-05-07 14:17 | 50.03234 | 8.56221 | 355 ft | 31 kts | 69° |
| 2026-05-07 14:17 | 50.03304 | 8.56512 | 359 ft | 27 kts | 69° |
| 2026-05-07 14:17 | 50.03342 | 8.56675 | 355 ft | 14 kts | 72° |
| 2026-05-07 14:18 | 50.03324 | 8.56808 | 356 ft | 15 kts | 140° |
| 2026-05-07 14:18 | 50.03312 | 8.56943 | 359 ft | 14 kts | 69° |
| 2026-05-07 14:18 | 50.03349 | 8.57099 | 363 ft | 16 kts | 70° |
| 2026-05-07 14:18 | 50.03392 | 8.57274 | 362 ft | 18 kts | 70° |
| 2026-05-07 14:19 | 50.03436 | 8.57467 | 361 ft | 19 kts | 70° |
| 2026-05-07 14:19 | 50.03432 | 8.57618 | 357 ft | 15 kts | 152° |
| 2026-05-07 14:19 | 50.03327 | 8.57678 | 357 ft | 17 kts | 159° |
| 2026-05-07 14:19 | 50.03211 | 8.57746 | 361 ft | 15 kts | 159° |
| 2026-05-07 14:20 | 50.03167 | 8.57824 | 358 ft | 10 kts | 80° |
| 2026-05-07 14:20 | 50.03187 | 8.57909 | 360 ft | 4 kts | 71° |
| 2026-05-07 14:20 | 50.03190 | 8.57922 | 363 ft | 0 kts | 70° |
| 2026-05-07 14:20 | 50.03190 | 8.57923 | 363 ft | 1 kts | 70° |
| 2026-05-07 14:21 | 50.03191 | 8.57925 | 363 ft | 0 kts | 70° |